Historyczne dane pomiarowe

Dodano dane terminowe – wersja testowa.

Dane z okresu 1951-2019

Wersja bazy: 1.34 [2019-03-16, lista zmian], aktualizacja planowana na 2019-04-15

Dane meteo z obszaru Polski uzyskane na podstawie danych udostępnionych przez Instytut Meteorologii i Gospodarki Wodnej – Państwowy Instytut Badawczy.

 

Wybierz Datę:    

       

TemperaturaWilgotnośćWiatrCiśnienieOpadyŚniegCzas trwania zjawisk
 Stacja t tx tn tng RH VA  wxwx mslp ppp RRR   cm mm wxwxwxwxwxwxwx
1961-08-14 13.8 18.8 8.6--- 5.0 1.3---- 0.0------------
1961-08-13 13.0 18.2 11.2--- 6.7 2.3---- 0.0------------
1961-08-12 16.4 21.8 14.2--- 8.0 1.0---- 4.2------------
1961-08-11 15.7 19.5 13.7--- 6.3 2.0---- 3.6------------
1961-08-10 17.9 23.4 8.1--- 2.7 0.3---- 0.5------------
1961-08-09 17.6 25.4 13.2--- 5.7 1.7---- 0.0------------
1961-08-08 15.1 20.0 12.6--- 6.7 1.7---- 0.0------------
1961-08-07 15.5 18.4 12.4--- 8.0 2.0---- 11.8------------
1961-08-06 19.7 27.5 11.2--- 5.7 1.0---- 4.8------------
1961-08-05 14.3 20.0 12.3--- 7.0 0.7---- 0.0------------
1961-08-04 14.7 18.3 10.6--- 7.0 0.7---- 3.2------------
1961-08-03 15.0 19.6 13.0--- 7.7 1.3---- 1.0------------
1961-08-02 16.7 22.8 12.6--- 7.7 0.7---- 1.5------------
1961-08-01 13.5 15.2 12.8--- 8.0 2.7---- 2.5------------
1961-07-31 15.8 20.0 12.5--- 8.0 4.7---- 5.4------------
1961-07-30 13.9 17.0 11.2--- 8.0 0.7---- 14.6------------
1961-07-29 13.7 18.4 11.9--- 7.7 0.7---- 6.6------------
1961-07-28 15.1 17.2 12.6--- 8.0 1.7---- 1.3------------
1961-07-27 16.0 21.8 14.6--- 8.0 2.0---- 4.4------------
1961-07-26 14.5 15.4 10.6--- 8.0 3.0---- 5.8------------
1961-07-25 13.5 17.4 10.5--- 8.0 1.3---- 0.0------------
1961-07-24 15.1 19.2 11.7--- 5.3 2.7---- 4.3------------
1961-07-23 14.3 17.3 12.7--- 8.0 1.7---- 1.5------------
1961-07-22 14.7 18.6 13.0--- 5.7 1.0---- 4.4------------
1961-07-21 15.7 20.4 8.9--- 6.3 1.3---- 3.1------------
1961-07-20 15.8 21.8 10.6--- 1.0 0.7---- 0.0------------
1961-07-19 15.3 21.8 10.1--- 5.7 1.0---- 5.4------------
1961-07-18 14.4 18.4 10.9--- 7.0 1.7---- 3.0------------
1961-07-17 14.9 21.2 11.8--- 5.0 1.3---- 0.0------------
1961-07-16 16.2 22.6 7.1--- 5.7 0.7---- 9.9------------
1961-07-15 16.7 25.2 10.4--- 3.3 1.7---- 1.4------------
1961-07-14 15.8 22.0 12.8--- 7.7 2.0---- 0.6------------
1961-07-13 20.1 23.8 10.8--- 3.0 1.0---- 0.0------------
1961-07-12 15.0 20.4 7.3--- 5.3 0.3---- 0.0------------
1961-07-11 12.3 18.1 9.5--- 4.0 1.7---- 1.4------------
1961-07-10 12.9 17.2 10.8--- 5.3 1.7---- 0.0------------
1961-07-09 16.8 22.7 12.3--- 4.7 2.7---- 0.0------------
1961-07-08 14.4 18.1 8.5--- 6.0 1.7---- 0.6------------
1961-07-07 13.4 18.4 9.1--- 5.7 2.3---- 1.6------------
1961-07-06 12.8 17.5 8.1--- 4.3 2.0---- 0.0------------
1961-07-05 13.9 17.4 11.8--- 5.3 1.7---- 0.0------------
1961-07-04 17.3 23.2 14.5--- 5.0 1.3---- 1.2------------
1961-07-03 23.3 28.4 13.0--- 2.7 1.3---- 0.0------------
1961-07-02 20.0 26.0 8.9--- 0.7 1.3---- 0.0------------
1961-07-01 16.2 22.4 10.4--- 3.7 1.7---- 0.0------------
1961-06-30 15.8 21.3 9.9--- 2.0 1.0---- 0.0------------
1961-06-29 13.1 16.4 8.5--- 5.7 1.3---- 0.0------------
1961-06-28 13.4 20.9 11.1--- 6.3 4.3---- 4.9------------
1961-06-27 22.1 29.1 11.5--- 3.3 4.3---- 3.1------------
1961-06-26 17.6 23.4 12.1--- 0.3 1.7---- 0.0------------
1961-06-25 17.5 24.2 12.0--- 2.3 2.7---- 0.0------------
1961-06-24 16.0 19.2 11.6--- 3.3 2.7---- 0.0------------
1961-06-23 15.6 22.4 10.7--- 7.0 1.7---- 0.0------------
1961-06-22 14.8 19.6 8.0--- 2.3 1.7---- 0.0------------
1961-06-21 13.3 20.0 6.9--- 7.7 3.3---- 4.8------------
1961-06-20 12.7 17.1 9.2--- 2.7 4.3---- 0.0------------
1961-06-19 14.3 18.4 12.1--- 6.3 2.7---- 0.0------------
1961-06-18 18.4 24.0 10.2--- 6.3 1.3---- 5.7------------
1961-06-17 13.8 18.3 11.2--- 6.7 2.7---- 5.7------------
1961-06-16 11.5 15.5 10.1--- 8.0 3.3---- 15.6------------
240.5 ms

 

Źródłem pochodzenia danych jest Instytut Meteorologii i Gospodarki Wodnej – Państwowy Instytut Badawczy. Dane Instytutu Meteorologii i Gospodarki Wodnej – Państwowego Instytutu Badawczego zostały przetworzone.

Dane źródłowe można odnaleźć na stronie https://dane.imgw.pl